sensor_id;sensor_type;location;lat;lon;timestamp;P1;durP1;ratioP1;P2;durP2;ratioP2
70369;SDS011;57790;51.356;-2.906;2023-12-14T00:02:37;5.20;;;1.00;;
70369;SDS011;57790;51.356;-2.906;2023-12-14T00:05:38;3.80;;;0.90;;
70369;SDS011;57790;51.356;-2.906;2023-12-14T00:08:38;4.40;;;1.13;;
70369;SDS011;57790;51.356;-2.906;2023-12-14T00:11:39;4.45;;;1.10;;
70369;SDS011;57790;51.356;-2.906;2023-12-14T00:14:39;5.40;;;1.20;;
70369;SDS011;57790;51.356;-2.906;2023-12-14T00:17:39;6.27;;;1.13;;
70369;SDS011;57790;51.356;-2.906;2023-12-14T00:20:40;7.17;;;1.30;;
70369;SDS011;57790;51.356;-2.906;2023-12-14T00:23:40;6.10;;;1.30;;
70369;SDS011;57790;51.356;-2.906;2023-12-14T00:26:41;4.20;;;1.00;;
70369;SDS011;57790;51.356;-2.906;2023-12-14T00:29:41;5.30;;;1.10;;
70369;SDS011;57790;51.356;-2.906;2023-12-14T00:32:41;8.27;;;1.30;;
70369;SDS011;57790;51.356;-2.906;2023-12-14T00:35:42;6.57;;;1.30;;
70369;SDS011;57790;51.356;-2.906;2023-12-14T00:38:42;5.93;;;0.93;;
70369;SDS011;57790;51.356;-2.906;2023-12-14T00:41:42;5.63;;;1.30;;
70369;SDS011;57790;51.356;-2.906;2023-12-14T00:44:43;6.23;;;1.40;;
70369;SDS011;57790;51.356;-2.906;2023-12-14T00:47:43;5.00;;;1.13;;
70369;SDS011;57790;51.356;-2.906;2023-12-14T00:50:43;5.30;;;1.23;;
70369;SDS011;57790;51.356;-2.906;2023-12-14T00:53:44;5.97;;;1.33;;
70369;SDS011;57790;51.356;-2.906;2023-12-14T00:56:44;6.33;;;1.20;;
70369;SDS011;57790;51.356;-2.906;2023-12-14T00:59:45;5.33;;;1.17;;
70369;SDS011;57790;51.356;-2.906;2023-12-14T01:02:45;6.70;;;1.40;;
70369;SDS011;57790;51.356;-2.906;2023-12-14T01:05:45;5.10;;;1.30;;
70369;SDS011;57790;51.356;-2.906;2023-12-14T01:08:46;4.17;;;1.00;;
70369;SDS011;57790;51.356;-2.906;2023-12-14T01:11:48;6.57;;;1.20;;
70369;SDS011;57790;51.356;-2.906;2023-12-14T01:14:48;4.73;;;1.10;;
70369;SDS011;57790;51.356;-2.906;2023-12-14T01:17:48;5.53;;;1.30;;
70369;SDS011;57790;51.356;-2.906;2023-12-14T01:20:49;6.70;;;1.40;;
70369;SDS011;57790;51.356;-2.906;2023-12-14T01:23:49;6.10;;;1.20;;
70369;SDS011;57790;51.356;-2.906;2023-12-14T01:26:49;5.07;;;1.43;;
70369;SDS011;57790;51.356;-2.906;2023-12-14T01:29:50;4.23;;;1.20;;
70369;SDS011;57790;51.356;-2.906;2023-12-14T01:32:50;5.93;;;1.30;;
70369;SDS011;57790;51.356;-2.906;2023-12-14T01:35:51;4.90;;;1.10;;
70369;SDS011;57790;51.356;-2.906;2023-12-14T01:38:51;3.63;;;0.98;;
70369;SDS011;57790;51.356;-2.906;2023-12-14T01:41:52;4.93;;;1.10;;
70369;SDS011;57790;51.356;-2.906;2023-12-14T01:44:52;4.73;;;1.23;;
70369;SDS011;57790;51.356;-2.906;2023-12-14T01:47:52;6.17;;;1.47;;
70369;SDS011;57790;51.356;-2.906;2023-12-14T01:50:53;5.00;;;1.27;;
70369;SDS011;57790;51.356;-2.906;2023-12-14T01:53:53;6.18;;;1.38;;
70369;SDS011;57790;51.356;-2.906;2023-12-14T01:56:54;4.87;;;1.03;;
70369;SDS011;57790;51.356;-2.906;2023-12-14T01:59:55;6.50;;;1.08;;
70369;SDS011;57790;51.356;-2.906;2023-12-14T02:02:55;4.27;;;0.90;;
70369;SDS011;57790;51.356;-2.906;2023-12-14T02:05:55;6.50;;;1.30;;
70369;SDS011;57790;51.356;-2.906;2023-12-14T02:08:57;5.88;;;1.30;;
70369;SDS011;57790;51.356;-2.906;2023-12-14T02:11:58;9.13;;;1.37;;
70369;SDS011;57790;51.356;-2.906;2023-12-14T02:14:59;5.13;;;1.17;;
70369;SDS011;57790;51.356;-2.906;2023-12-14T02:17:59;4.90;;;1.10;;
70369;SDS011;57790;51.356;-2.906;2023-12-14T02:21:00;5.83;;;1.40;;
70369;SDS011;57790;51.356;-2.906;2023-12-14T02:24:00;6.37;;;1.40;;
70369;SDS011;57790;51.356;-2.906;2023-12-14T02:27:00;4.77;;;1.13;;
70369;SDS011;57790;51.356;-2.906;2023-12-14T02:30:01;7.13;;;1.67;;
70369;SDS011;57790;51.356;-2.906;2023-12-14T02:33:01;5.07;;;0.98;;
70369;SDS011;57790;51.356;-2.906;2023-12-14T02:36:02;5.30;;;1.13;;
70369;SDS011;57790;51.356;-2.906;2023-12-14T02:39:03;4.82;;;1.23;;
70369;SDS011;57790;51.356;-2.906;2023-12-14T02:42:04;5.97;;;1.10;;
70369;SDS011;57790;51.356;-2.906;2023-12-14T02:45:05;5.80;;;1.10;;
70369;SDS011;57790;51.356;-2.906;2023-12-14T02:48:07;5.35;;;1.08;;
70369;SDS011;57790;51.356;-2.906;2023-12-14T02:51:07;5.70;;;1.30;;
70369;SDS011;57790;51.356;-2.906;2023-12-14T02:54:11;5.07;;;1.10;;
70369;SDS011;57790;51.356;-2.906;2023-12-14T02:57:12;5.13;;;1.30;;
70369;SDS011;57790;51.356;-2.906;2023-12-14T03:00:12;5.90;;;1.27;;
70369;SDS011;57790;51.356;-2.906;2023-12-14T03:03:13;5.22;;;1.10;;
70369;SDS011;57790;51.356;-2.906;2023-12-14T03:06:13;6.00;;;1.23;;
70369;SDS011;57790;51.356;-2.906;2023-12-14T03:09:14;5.73;;;0.87;;
70369;SDS011;57790;51.356;-2.906;2023-12-14T03:12:14;4.37;;;1.17;;
70369;SDS011;57790;51.356;-2.906;2023-12-14T03:15:16;4.10;;;1.00;;
70369;SDS011;57790;51.356;-2.906;2023-12-14T03:18:18;4.25;;;1.25;;
70369;SDS011;57790;51.356;-2.906;2023-12-14T03:21:18;6.57;;;1.30;;
70369;SDS011;57790;51.356;-2.906;2023-12-14T03:24:19;4.43;;;1.10;;
70369;SDS011;57790;51.356;-2.906;2023-12-14T03:27:20;5.72;;;1.10;;
70369;SDS011;57790;51.356;-2.906;2023-12-14T03:30:22;4.60;;;1.10;;
70369;SDS011;57790;51.356;-2.906;2023-12-14T03:33:23;4.90;;;1.17;;
70369;SDS011;57790;51.356;-2.906;2023-12-14T03:36:23;8.07;;;1.20;;
70369;SDS011;57790;51.356;-2.906;2023-12-14T03:39:26;5.80;;;1.30;;
70369;SDS011;57790;51.356;-2.906;2023-12-14T03:42:27;4.80;;;1.03;;
70369;SDS011;57790;51.356;-2.906;2023-12-14T03:45:27;6.43;;;1.37;;
70369;SDS011;57790;51.356;-2.906;2023-12-14T03:48:28;4.22;;;1.10;;
70369;SDS011;57790;51.356;-2.906;2023-12-14T03:51:28;4.03;;;1.00;;
70369;SDS011;57790;51.356;-2.906;2023-12-14T03:54:29;6.73;;;1.30;;
70369;SDS011;57790;51.356;-2.906;2023-12-14T03:57:29;5.40;;;1.20;;
70369;SDS011;57790;51.356;-2.906;2023-12-14T04:00:29;6.20;;;1.47;;
70369;SDS011;57790;51.356;-2.906;2023-12-14T04:03:30;4.22;;;1.10;;
70369;SDS011;57790;51.356;-2.906;2023-12-14T04:06:30;5.83;;;1.20;;
70369;SDS011;57790;51.356;-2.906;2023-12-14T04:09:31;5.60;;;1.40;;
70369;SDS011;57790;51.356;-2.906;2023-12-14T04:12:31;5.23;;;1.30;;
70369;SDS011;57790;51.356;-2.906;2023-12-14T04:15:31;5.57;;;1.30;;
70369;SDS011;57790;51.356;-2.906;2023-12-14T04:18:32;4.67;;;1.00;;
70369;SDS011;57790;51.356;-2.906;2023-12-14T04:21:32;6.20;;;1.17;;
70369;SDS011;57790;51.356;-2.906;2023-12-14T04:24:33;3.87;;;0.80;;
70369;SDS011;57790;51.356;-2.906;2023-12-14T04:27:33;4.63;;;1.10;;
70369;SDS011;57790;51.356;-2.906;2023-12-14T04:30:34;3.70;;;0.90;;
70369;SDS011;57790;51.356;-2.906;2023-12-14T04:33:34;3.73;;;0.97;;
70369;SDS011;57790;51.356;-2.906;2023-12-14T04:36:34;5.43;;;1.10;;
70369;SDS011;57790;51.356;-2.906;2023-12-14T04:39:35;4.77;;;1.10;;
70369;SDS011;57790;51.356;-2.906;2023-12-14T04:42:35;4.43;;;1.00;;
70369;SDS011;57790;51.356;-2.906;2023-12-14T04:45:36;5.60;;;1.30;;
70369;SDS011;57790;51.356;-2.906;2023-12-14T04:48:36;4.80;;;1.00;;
70369;SDS011;57790;51.356;-2.906;2023-12-14T04:51:37;3.20;;;1.00;;
70369;SDS011;57790;51.356;-2.906;2023-12-14T04:54:37;3.90;;;0.90;;
70369;SDS011;57790;51.356;-2.906;2023-12-14T04:57:40;4.55;;;0.90;;
70369;SDS011;57790;51.356;-2.906;2023-12-14T05:00:40;4.30;;;1.03;;
70369;SDS011;57790;51.356;-2.906;2023-12-14T05:03:41;4.40;;;1.00;;
70369;SDS011;57790;51.356;-2.906;2023-12-14T05:06:41;3.97;;;0.90;;
70369;SDS011;57790;51.356;-2.906;2023-12-14T05:09:42;5.17;;;0.93;;
70369;SDS011;57790;51.356;-2.906;2023-12-14T05:12:42;5.90;;;1.20;;
70369;SDS011;57790;51.356;-2.906;2023-12-14T05:15:42;4.73;;;1.00;;
70369;SDS011;57790;51.356;-2.906;2023-12-14T05:18:43;4.63;;;0.90;;
70369;SDS011;57790;51.356;-2.906;2023-12-14T05:21:43;3.37;;;0.97;;
70369;SDS011;57790;51.356;-2.906;2023-12-14T05:24:46;4.57;;;0.90;;
70369;SDS011;57790;51.356;-2.906;2023-12-14T05:27:47;4.32;;;0.95;;
70369;SDS011;57790;51.356;-2.906;2023-12-14T05:30:47;4.53;;;0.70;;
70369;SDS011;57790;51.356;-2.906;2023-12-14T05:33:47;2.87;;;0.90;;
70369;SDS011;57790;51.356;-2.906;2023-12-14T05:36:48;4.67;;;0.97;;
70369;SDS011;57790;51.356;-2.906;2023-12-14T05:39:48;2.93;;;0.83;;
70369;SDS011;57790;51.356;-2.906;2023-12-14T05:42:48;4.32;;;0.80;;
70369;SDS011;57790;51.356;-2.906;2023-12-14T05:45:49;3.40;;;0.90;;
70369;SDS011;57790;51.356;-2.906;2023-12-14T05:48:49;5.43;;;1.00;;
70369;SDS011;57790;51.356;-2.906;2023-12-14T05:51:50;5.68;;;1.00;;
70369;SDS011;57790;51.356;-2.906;2023-12-14T05:54:50;5.10;;;1.40;;
70369;SDS011;57790;51.356;-2.906;2023-12-14T05:57:51;5.77;;;1.10;;
70369;SDS011;57790;51.356;-2.906;2023-12-14T06:00:51;3.23;;;0.70;;
70369;SDS011;57790;51.356;-2.906;2023-12-14T06:03:53;3.35;;;0.80;;
70369;SDS011;57790;51.356;-2.906;2023-12-14T06:06:53;2.33;;;0.77;;
70369;SDS011;57790;51.356;-2.906;2023-12-14T06:09:54;4.20;;;0.87;;
70369;SDS011;57790;51.356;-2.906;2023-12-14T06:12:54;4.33;;;0.97;;
70369;SDS011;57790;51.356;-2.906;2023-12-14T06:15:54;5.77;;;1.13;;
70369;SDS011;57790;51.356;-2.906;2023-12-14T06:18:55;3.73;;;0.90;;
70369;SDS011;57790;51.356;-2.906;2023-12-14T06:21:55;5.00;;;0.93;;
70369;SDS011;57790;51.356;-2.906;2023-12-14T06:24:56;4.97;;;0.95;;
70369;SDS011;57790;51.356;-2.906;2023-12-14T06:27:56;4.23;;;0.90;;
70369;SDS011;57790;51.356;-2.906;2023-12-14T06:30:57;5.63;;;1.00;;
70369;SDS011;57790;51.356;-2.906;2023-12-14T06:33:57;4.77;;;0.93;;
70369;SDS011;57790;51.356;-2.906;2023-12-14T06:37:00;4.25;;;1.05;;
70369;SDS011;57790;51.356;-2.906;2023-12-14T06:40:03;3.60;;;0.90;;
70369;SDS011;57790;51.356;-2.906;2023-12-14T06:43:06;5.37;;;1.00;;
70369;SDS011;57790;51.356;-2.906;2023-12-14T06:46:07;4.75;;;0.80;;
70369;SDS011;57790;51.356;-2.906;2023-12-14T06:49:08;5.22;;;1.10;;
70369;SDS011;57790;51.356;-2.906;2023-12-14T06:52:08;5.77;;;1.00;;
70369;SDS011;57790;51.356;-2.906;2023-12-14T06:55:09;3.22;;;0.80;;
70369;SDS011;57790;51.356;-2.906;2023-12-14T06:58:10;5.13;;;0.90;;
70369;SDS011;57790;51.356;-2.906;2023-12-14T07:01:15;5.80;;;1.00;;
70369;SDS011;57790;51.356;-2.906;2023-12-14T07:04:17;4.65;;;0.90;;
70369;SDS011;57790;51.356;-2.906;2023-12-14T07:07:19;5.22;;;0.98;;
70369;SDS011;57790;51.356;-2.906;2023-12-14T07:10:19;3.93;;;0.83;;
70369;SDS011;57790;51.356;-2.906;2023-12-14T07:13:20;5.30;;;0.83;;
70369;SDS011;57790;51.356;-2.906;2023-12-14T07:16:21;3.75;;;1.02;;
70369;SDS011;57790;51.356;-2.906;2023-12-14T07:19:21;6.80;;;1.27;;
70369;SDS011;57790;51.356;-2.906;2023-12-14T07:22:21;4.17;;;0.90;;
70369;SDS011;57790;51.356;-2.906;2023-12-14T07:25:22;5.43;;;1.00;;
70369;SDS011;57790;51.356;-2.906;2023-12-14T07:28:22;4.57;;;1.00;;
70369;SDS011;57790;51.356;-2.906;2023-12-14T07:31:23;6.50;;;0.83;;
70369;SDS011;57790;51.356;-2.906;2023-12-14T07:34:23;2.87;;;0.80;;
70369;SDS011;57790;51.356;-2.906;2023-12-14T07:37:24;4.28;;;1.00;;
70369;SDS011;57790;51.356;-2.906;2023-12-14T07:40:25;6.00;;;1.00;;
70369;SDS011;57790;51.356;-2.906;2023-12-14T07:43:25;5.90;;;1.10;;
70369;SDS011;57790;51.356;-2.906;2023-12-14T07:46:26;4.03;;;0.90;;
70369;SDS011;57790;51.356;-2.906;2023-12-14T07:49:26;5.30;;;0.80;;
70369;SDS011;57790;51.356;-2.906;2023-12-14T07:52:27;6.17;;;1.10;;
70369;SDS011;57790;51.356;-2.906;2023-12-14T07:55:27;4.67;;;1.07;;
70369;SDS011;57790;51.356;-2.906;2023-12-14T07:58:29;3.83;;;0.90;;
70369;SDS011;57790;51.356;-2.906;2023-12-14T08:01:29;4.47;;;1.07;;
70369;SDS011;57790;51.356;-2.906;2023-12-14T08:04:29;6.27;;;1.23;;
70369;SDS011;57790;51.356;-2.906;2023-12-14T08:07:31;4.17;;;0.87;;
70369;SDS011;57790;51.356;-2.906;2023-12-14T08:10:32;5.00;;;1.10;;
70369;SDS011;57790;51.356;-2.906;2023-12-14T08:13:32;4.33;;;1.00;;
70369;SDS011;57790;51.356;-2.906;2023-12-14T08:16:32;5.55;;;1.20;;
70369;SDS011;57790;51.356;-2.906;2023-12-14T08:19:33;5.27;;;0.80;;
70369;SDS011;57790;51.356;-2.906;2023-12-14T08:22:33;4.67;;;1.00;;
70369;SDS011;57790;51.356;-2.906;2023-12-14T08:25:34;5.50;;;1.07;;
70369;SDS011;57790;51.356;-2.906;2023-12-14T08:28:34;5.78;;;1.02;;
70369;SDS011;57790;51.356;-2.906;2023-12-14T08:31:35;5.40;;;1.13;;
70369;SDS011;57790;51.356;-2.906;2023-12-14T08:34:35;5.90;;;1.23;;
70369;SDS011;57790;51.356;-2.906;2023-12-14T08:37:36;3.17;;;0.90;;
70369;SDS011;57790;51.356;-2.906;2023-12-14T08:40:37;5.00;;;1.03;;
70369;SDS011;57790;51.356;-2.906;2023-12-14T08:43:39;6.80;;;1.08;;
70369;SDS011;57790;51.356;-2.906;2023-12-14T08:46:40;7.13;;;1.30;;
70369;SDS011;57790;51.356;-2.906;2023-12-14T08:49:45;6.85;;;1.52;;
70369;SDS011;57790;51.356;-2.906;2023-12-14T08:52:45;5.87;;;1.10;;
70369;SDS011;57790;51.356;-2.906;2023-12-14T08:55:46;5.43;;;1.43;;
70369;SDS011;57790;51.356;-2.906;2023-12-14T08:58:46;4.67;;;1.10;;
70369;SDS011;57790;51.356;-2.906;2023-12-14T09:01:46;6.60;;;1.20;;
70369;SDS011;57790;51.356;-2.906;2023-12-14T09:04:47;7.65;;;1.20;;
70369;SDS011;57790;51.356;-2.906;2023-12-14T09:07:47;5.17;;;1.30;;
70369;SDS011;57790;51.356;-2.906;2023-12-14T09:10:47;5.50;;;1.30;;
70369;SDS011;57790;51.356;-2.906;2023-12-14T09:13:48;4.97;;;1.00;;
70369;SDS011;57790;51.356;-2.906;2023-12-14T09:16:48;4.87;;;1.17;;
70369;SDS011;57790;51.356;-2.906;2023-12-14T09:19:49;6.85;;;0.90;;
70369;SDS011;57790;51.356;-2.906;2023-12-14T09:22:49;4.33;;;1.00;;
70369;SDS011;57790;51.356;-2.906;2023-12-14T09:25:50;4.27;;;0.90;;
70369;SDS011;57790;51.356;-2.906;2023-12-14T09:28:50;3.30;;;0.75;;
70369;SDS011;57790;51.356;-2.906;2023-12-14T09:31:51;4.90;;;1.23;;
70369;SDS011;57790;51.356;-2.906;2023-12-14T09:34:51;6.13;;;1.30;;
70369;SDS011;57790;51.356;-2.906;2023-12-14T09:37:52;6.30;;;1.13;;
70369;SDS011;57790;51.356;-2.906;2023-12-14T09:40:53;6.00;;;1.20;;
70369;SDS011;57790;51.356;-2.906;2023-12-14T09:43:54;6.07;;;1.20;;
70369;SDS011;57790;51.356;-2.906;2023-12-14T09:46:55;5.88;;;1.55;;
70369;SDS011;57790;51.356;-2.906;2023-12-14T09:49:58;3.40;;;0.70;;
70369;SDS011;57790;51.356;-2.906;2023-12-14T09:52:59;5.88;;;0.80;;
70369;SDS011;57790;51.356;-2.906;2023-12-14T09:55:59;5.67;;;1.00;;
70369;SDS011;57790;51.356;-2.906;2023-12-14T09:59:00;4.47;;;0.97;;
70369;SDS011;57790;51.356;-2.906;2023-12-14T10:02:08;3.83;;;0.77;;
70369;SDS011;57790;51.356;-2.906;2023-12-14T10:05:11;3.17;;;0.90;;
70369;SDS011;57790;51.356;-2.906;2023-12-14T10:08:11;4.67;;;1.00;;
70369;SDS011;57790;51.356;-2.906;2023-12-14T10:11:15;2.53;;;0.70;;
70369;SDS011;57790;51.356;-2.906;2023-12-14T10:14:20;3.20;;;0.73;;
70369;SDS011;57790;51.356;-2.906;2023-12-14T10:17:21;4.97;;;0.80;;
70369;SDS011;57790;51.356;-2.906;2023-12-14T10:20:24;4.22;;;0.80;;
70369;SDS011;57790;51.356;-2.906;2023-12-14T10:23:27;3.72;;;0.77;;
70369;SDS011;57790;51.356;-2.906;2023-12-14T10:26:28;3.28;;;0.63;;
70369;SDS011;57790;51.356;-2.906;2023-12-14T10:29:28;4.03;;;0.80;;
70369;SDS011;57790;51.356;-2.906;2023-12-14T10:32:28;4.17;;;0.70;;
70369;SDS011;57790;51.356;-2.906;2023-12-14T10:35:29;2.90;;;0.70;;
70369;SDS011;57790;51.356;-2.906;2023-12-14T10:38:29;3.60;;;0.70;;
70369;SDS011;57790;51.356;-2.906;2023-12-14T10:41:32;5.13;;;0.70;;
70369;SDS011;57790;51.356;-2.906;2023-12-14T10:44:35;4.87;;;0.73;;
70369;SDS011;57790;51.356;-2.906;2023-12-14T10:47:37;2.92;;;0.70;;
70369;SDS011;57790;51.356;-2.906;2023-12-14T10:50:42;3.58;;;0.60;;
70369;SDS011;57790;51.356;-2.906;2023-12-14T10:53:44;2.73;;;0.60;;
70369;SDS011;57790;51.356;-2.906;2023-12-14T10:56:49;4.65;;;0.60;;
70369;SDS011;57790;51.356;-2.906;2023-12-14T10:59:49;3.23;;;0.67;;
70369;SDS011;57790;51.356;-2.906;2023-12-14T11:02:50;2.57;;;0.43;;
70369;SDS011;57790;51.356;-2.906;2023-12-14T11:05:52;2.92;;;0.60;;
70369;SDS011;57790;51.356;-2.906;2023-12-14T11:08:53;2.87;;;0.70;;
70369;SDS011;57790;51.356;-2.906;2023-12-14T11:11:57;4.03;;;0.97;;
70369;SDS011;57790;51.356;-2.906;2023-12-14T11:14:59;3.43;;;0.70;;
70369;SDS011;57790;51.356;-2.906;2023-12-14T11:21:18;3.53;;;0.65;;
70369;SDS011;57790;51.356;-2.906;2023-12-14T11:24:20;4.63;;;0.80;;
70369;SDS011;57790;51.356;-2.906;2023-12-14T11:27:25;4.00;;;0.50;;
70369;SDS011;57790;51.356;-2.906;2023-12-14T11:30:27;2.88;;;0.63;;
70369;SDS011;57790;51.356;-2.906;2023-12-14T11:33:28;3.10;;;0.77;;
70369;SDS011;57790;51.356;-2.906;2023-12-14T11:36:28;2.40;;;0.60;;
70369;SDS011;57790;51.356;-2.906;2023-12-14T11:39:30;3.97;;;0.60;;
70369;SDS011;57790;51.356;-2.906;2023-12-14T11:42:30;3.07;;;0.80;;
70369;SDS011;57790;51.356;-2.906;2023-12-14T11:45:31;2.75;;;0.70;;
70369;SDS011;57790;51.356;-2.906;2023-12-14T11:48:32;3.00;;;0.60;;
70369;SDS011;57790;51.356;-2.906;2023-12-14T11:51:33;5.93;;;0.90;;
70369;SDS011;57790;51.356;-2.906;2023-12-14T11:54:33;3.53;;;0.80;;
70369;SDS011;57790;51.356;-2.906;2023-12-14T11:57:33;2.03;;;0.63;;
70369;SDS011;57790;51.356;-2.906;2023-12-14T12:00:34;4.47;;;0.70;;
70369;SDS011;57790;51.356;-2.906;2023-12-14T12:03:39;2.67;;;0.60;;
70369;SDS011;57790;51.356;-2.906;2023-12-14T12:06:40;4.43;;;0.70;;
70369;SDS011;57790;51.356;-2.906;2023-12-14T12:09:41;5.43;;;0.97;;
70369;SDS011;57790;51.356;-2.906;2023-12-14T12:12:43;2.60;;;0.65;;
70369;SDS011;57790;51.356;-2.906;2023-12-14T12:15:43;5.00;;;1.00;;
70369;SDS011;57790;51.356;-2.906;2023-12-14T12:18:44;3.40;;;0.63;;
70369;SDS011;57790;51.356;-2.906;2023-12-14T12:21:44;4.37;;;0.80;;
70369;SDS011;57790;51.356;-2.906;2023-12-14T12:24:44;2.97;;;0.90;;
70369;SDS011;57790;51.356;-2.906;2023-12-14T12:27:45;5.10;;;0.80;;
70369;SDS011;57790;51.356;-2.906;2023-12-14T12:30:47;3.42;;;0.70;;
70369;SDS011;57790;51.356;-2.906;2023-12-14T12:33:47;3.50;;;0.70;;
70369;SDS011;57790;51.356;-2.906;2023-12-14T12:36:48;2.87;;;0.77;;
70369;SDS011;57790;51.356;-2.906;2023-12-14T12:39:48;4.72;;;0.93;;
70369;SDS011;57790;51.356;-2.906;2023-12-14T12:42:49;3.53;;;0.90;;
70369;SDS011;57790;51.356;-2.906;2023-12-14T12:45:50;3.55;;;0.88;;
70369;SDS011;57790;51.356;-2.906;2023-12-14T12:48:50;3.80;;;0.90;;
70369;SDS011;57790;51.356;-2.906;2023-12-14T12:51:51;4.10;;;1.00;;
70369;SDS011;57790;51.356;-2.906;2023-12-14T12:54:51;6.17;;;1.00;;
70369;SDS011;57790;51.356;-2.906;2023-12-14T12:57:52;4.67;;;0.70;;
70369;SDS011;57790;51.356;-2.906;2023-12-14T13:00:52;4.40;;;0.80;;
70369;SDS011;57790;51.356;-2.906;2023-12-14T13:03:53;3.92;;;0.93;;
70369;SDS011;57790;51.356;-2.906;2023-12-14T13:06:55;3.33;;;0.77;;
70369;SDS011;57790;51.356;-2.906;2023-12-14T13:09:55;3.72;;;0.70;;
70369;SDS011;57790;51.356;-2.906;2023-12-14T13:12:55;3.83;;;0.80;;
70369;SDS011;57790;51.356;-2.906;2023-12-14T13:15:56;2.93;;;0.80;;
70369;SDS011;57790;51.356;-2.906;2023-12-14T13:18:57;3.40;;;0.73;;
70369;SDS011;57790;51.356;-2.906;2023-12-14T13:21:57;2.83;;;0.70;;
70369;SDS011;57790;51.356;-2.906;2023-12-14T13:24:59;3.73;;;0.90;;
70369;SDS011;57790;51.356;-2.906;2023-12-14T13:27:59;5.27;;;0.80;;
70369;SDS011;57790;51.356;-2.906;2023-12-14T13:31:00;3.45;;;0.77;;
70369;SDS011;57790;51.356;-2.906;2023-12-14T13:34:00;3.80;;;0.80;;
70369;SDS011;57790;51.356;-2.906;2023-12-14T13:37:01;5.03;;;0.80;;
70369;SDS011;57790;51.356;-2.906;2023-12-14T13:40:02;4.63;;;0.80;;
70369;SDS011;57790;51.356;-2.906;2023-12-14T13:43:03;4.60;;;0.70;;
70369;SDS011;57790;51.356;-2.906;2023-12-14T13:46:10;3.60;;;0.60;;
70369;SDS011;57790;51.356;-2.906;2023-12-14T13:49:10;5.25;;;0.90;;
70369;SDS011;57790;51.356;-2.906;2023-12-14T13:52:10;9.33;;;1.20;;
70369;SDS011;57790;51.356;-2.906;2023-12-14T13:55:11;4.00;;;1.00;;
70369;SDS011;57790;51.356;-2.906;2023-12-14T13:58:12;6.50;;;0.90;;
70369;SDS011;57790;51.356;-2.906;2023-12-14T14:01:12;5.43;;;1.02;;
70369;SDS011;57790;51.356;-2.906;2023-12-14T14:04:13;2.47;;;0.60;;
70369;SDS011;57790;51.356;-2.906;2023-12-14T14:07:14;4.60;;;0.75;;
70369;SDS011;57790;51.356;-2.906;2023-12-14T14:10:14;4.73;;;0.90;;
70369;SDS011;57790;51.356;-2.906;2023-12-14T14:13:14;4.80;;;1.10;;
70369;SDS011;57790;51.356;-2.906;2023-12-14T14:16:15;5.43;;;0.83;;
70369;SDS011;57790;51.356;-2.906;2023-12-14T14:19:15;3.10;;;0.68;;
70369;SDS011;57790;51.356;-2.906;2023-12-14T14:22:16;4.30;;;0.90;;
70369;SDS011;57790;51.356;-2.906;2023-12-14T14:25:16;3.77;;;0.73;;
70369;SDS011;57790;51.356;-2.906;2023-12-14T14:28:17;6.13;;;1.30;;
70369;SDS011;57790;51.356;-2.906;2023-12-14T14:31:17;4.90;;;0.80;;
70369;SDS011;57790;51.356;-2.906;2023-12-14T14:34:17;3.23;;;0.67;;
70369;SDS011;57790;51.356;-2.906;2023-12-14T14:37:18;6.07;;;0.80;;
70369;SDS011;57790;51.356;-2.906;2023-12-14T14:40:18;4.17;;;0.83;;
70369;SDS011;57790;51.356;-2.906;2023-12-14T14:43:19;4.20;;;0.57;;
70369;SDS011;57790;51.356;-2.906;2023-12-14T14:46:19;3.83;;;0.70;;
70369;SDS011;57790;51.356;-2.906;2023-12-14T14:49:19;5.67;;;1.10;;
70369;SDS011;57790;51.356;-2.906;2023-12-14T14:52:20;5.50;;;0.80;;
70369;SDS011;57790;51.356;-2.906;2023-12-14T14:55:20;6.15;;;0.88;;
70369;SDS011;57790;51.356;-2.906;2023-12-14T14:58:21;5.30;;;0.80;;
70369;SDS011;57790;51.356;-2.906;2023-12-14T15:01:22;4.07;;;0.73;;
70369;SDS011;57790;51.356;-2.906;2023-12-14T15:04:23;5.13;;;1.00;;
70369;SDS011;57790;51.356;-2.906;2023-12-14T15:07:23;6.77;;;0.90;;
70369;SDS011;57790;51.356;-2.906;2023-12-14T15:10:23;4.22;;;0.93;;
70369;SDS011;57790;51.356;-2.906;2023-12-14T15:13:24;2.70;;;0.60;;
70369;SDS011;57790;51.356;-2.906;2023-12-14T15:16:24;3.33;;;0.70;;
70369;SDS011;57790;51.356;-2.906;2023-12-14T15:19:25;6.17;;;0.97;;
70369;SDS011;57790;51.356;-2.906;2023-12-14T15:22:26;4.15;;;0.65;;
70369;SDS011;57790;51.356;-2.906;2023-12-14T15:25:26;3.63;;;0.70;;
70369;SDS011;57790;51.356;-2.906;2023-12-14T15:28:26;6.10;;;0.83;;
70369;SDS011;57790;51.356;-2.906;2023-12-14T15:31:27;5.22;;;0.90;;
70369;SDS011;57790;51.356;-2.906;2023-12-14T15:34:27;5.90;;;0.80;;
70369;SDS011;57790;51.356;-2.906;2023-12-14T15:37:28;3.33;;;0.80;;
70369;SDS011;57790;51.356;-2.906;2023-12-14T15:40:29;6.03;;;0.90;;
70369;SDS011;57790;51.356;-2.906;2023-12-14T15:43:29;4.35;;;0.70;;
70369;SDS011;57790;51.356;-2.906;2023-12-14T15:46:29;5.23;;;0.70;;
70369;SDS011;57790;51.356;-2.906;2023-12-14T15:49:30;4.57;;;0.70;;
70369;SDS011;57790;51.356;-2.906;2023-12-14T15:52:30;3.97;;;0.70;;
70369;SDS011;57790;51.356;-2.906;2023-12-14T15:55:31;3.50;;;0.70;;
70369;SDS011;57790;51.356;-2.906;2023-12-14T15:58:32;6.65;;;1.00;;
70369;SDS011;57790;51.356;-2.906;2023-12-14T16:01:33;4.80;;;0.90;;
70369;SDS011;57790;51.356;-2.906;2023-12-14T16:04:33;3.63;;;0.70;;
70369;SDS011;57790;51.356;-2.906;2023-12-14T16:07:34;4.20;;;0.60;;
70369;SDS011;57790;51.356;-2.906;2023-12-14T16:10:35;7.03;;;0.80;;
70369;SDS011;57790;51.356;-2.906;2023-12-14T16:13:35;4.70;;;0.65;;
70369;SDS011;57790;51.356;-2.906;2023-12-14T16:16:35;9.13;;;0.90;;
70369;SDS011;57790;51.356;-2.906;2023-12-14T16:19:36;5.17;;;1.00;;
70369;SDS011;57790;51.356;-2.906;2023-12-14T16:22:36;3.60;;;0.63;;
70369;SDS011;57790;51.356;-2.906;2023-12-14T16:25:37;7.07;;;0.80;;
70369;SDS011;57790;51.356;-2.906;2023-12-14T16:28:37;5.43;;;0.97;;
70369;SDS011;57790;51.356;-2.906;2023-12-14T16:31:41;5.97;;;0.90;;
70369;SDS011;57790;51.356;-2.906;2023-12-14T16:34:42;6.40;;;1.20;;
70369;SDS011;57790;51.356;-2.906;2023-12-14T16:37:42;6.17;;;0.77;;
70369;SDS011;57790;51.356;-2.906;2023-12-14T16:40:43;5.32;;;1.00;;
70369;SDS011;57790;51.356;-2.906;2023-12-14T16:43:44;6.90;;;1.00;;
70369;SDS011;57790;51.356;-2.906;2023-12-14T16:46:44;6.65;;;0.90;;
70369;SDS011;57790;51.356;-2.906;2023-12-14T16:49:44;5.73;;;0.70;;
70369;SDS011;57790;51.356;-2.906;2023-12-14T16:52:45;6.53;;;0.95;;
70369;SDS011;57790;51.356;-2.906;2023-12-14T16:55:45;7.90;;;0.90;;
70369;SDS011;57790;51.356;-2.906;2023-12-14T16:58:46;5.33;;;0.90;;
70369;SDS011;57790;51.356;-2.906;2023-12-14T17:01:46;7.83;;;0.87;;
70369;SDS011;57790;51.356;-2.906;2023-12-14T17:04:46;9.50;;;0.83;;
70369;SDS011;57790;51.356;-2.906;2023-12-14T17:07:47;6.67;;;0.80;;
70369;SDS011;57790;51.356;-2.906;2023-12-14T17:10:47;5.43;;;1.20;;
70369;SDS011;57790;51.356;-2.906;2023-12-14T17:13:49;8.52;;;1.30;;
70369;SDS011;57790;51.356;-2.906;2023-12-14T17:16:49;6.63;;;0.93;;
70369;SDS011;57790;51.356;-2.906;2023-12-14T17:19:50;7.40;;;0.85;;
70369;SDS011;57790;51.356;-2.906;2023-12-14T17:22:50;7.27;;;0.90;;
70369;SDS011;57790;51.356;-2.906;2023-12-14T17:25:51;6.13;;;0.93;;
70369;SDS011;57790;51.356;-2.906;2023-12-14T17:28:52;9.27;;;1.27;;
70369;SDS011;57790;51.356;-2.906;2023-12-14T17:31:56;9.27;;;1.17;;
70369;SDS011;57790;51.356;-2.906;2023-12-14T17:34:56;7.93;;;1.00;;
70369;SDS011;57790;51.356;-2.906;2023-12-14T17:37:57;7.00;;;1.00;;
70369;SDS011;57790;51.356;-2.906;2023-12-14T17:40:57;6.23;;;1.10;;
70369;SDS011;57790;51.356;-2.906;2023-12-14T17:44:01;12.85;;;1.27;;
70369;SDS011;57790;51.356;-2.906;2023-12-14T17:47:02;6.60;;;0.93;;
70369;SDS011;57790;51.356;-2.906;2023-12-14T17:50:03;10.50;;;1.07;;
70369;SDS011;57790;51.356;-2.906;2023-12-14T17:53:04;8.18;;;1.15;;
70369;SDS011;57790;51.356;-2.906;2023-12-14T17:56:05;7.90;;;1.30;;